sensor_id;sensor_type;location;lat;lon;timestamp;P1;durP1;ratioP1;P2;durP2;ratioP2
21527;SDS011;10925;49.102;-0.370;2022-08-03T00:01:30;6.40;;;2.85;;
21527;SDS011;10925;49.102;-0.370;2022-08-03T00:03:55;6.25;;;3.20;;
21527;SDS011;10925;49.102;-0.370;2022-08-03T00:06:22;4.30;;;2.72;;
21527;SDS011;10925;49.102;-0.370;2022-08-03T00:08:48;5.90;;;3.00;;
21527;SDS011;10925;49.102;-0.370;2022-08-03T00:11:15;10.02;;;3.30;;
21527;SDS011;10925;49.102;-0.370;2022-08-03T00:13:41;5.22;;;3.50;;
21527;SDS011;10925;49.102;-0.370;2022-08-03T00:16:08;6.63;;;2.60;;
21527;SDS011;10925;49.102;-0.370;2022-08-03T00:18:36;7.43;;;3.53;;
21527;SDS011;10925;49.102;-0.370;2022-08-03T00:21:03;6.63;;;3.13;;
21527;SDS011;10925;49.102;-0.370;2022-08-03T00:23:30;6.53;;;2.95;;
21527;SDS011;10925;49.102;-0.370;2022-08-03T00:26:17;7.00;;;2.97;;
21527;SDS011;10925;49.102;-0.370;2022-08-03T00:28:42;7.53;;;3.33;;
21527;SDS011;10925;49.102;-0.370;2022-08-03T00:31:09;9.18;;;3.45;;
21527;SDS011;10925;49.102;-0.370;2022-08-03T00:33:39;6.30;;;3.17;;
21527;SDS011;10925;49.102;-0.370;2022-08-03T00:36:04;4.10;;;3.25;;
21527;SDS011;10925;49.102;-0.370;2022-08-03T00:38:31;7.93;;;3.05;;
21527;SDS011;10925;49.102;-0.370;2022-08-03T00:40:58;5.45;;;2.95;;
21527;SDS011;10925;49.102;-0.370;2022-08-03T00:43:24;7.22;;;3.00;;
21527;SDS011;10925;49.102;-0.370;2022-08-03T00:45:50;7.57;;;3.20;;
21527;SDS011;10925;49.102;-0.370;2022-08-03T00:48:17;7.35;;;3.20;;
21527;SDS011;10925;49.102;-0.370;2022-08-03T00:50:43;8.00;;;3.17;;
21527;SDS011;10925;49.102;-0.370;2022-08-03T00:53:10;5.63;;;3.50;;
21527;SDS011;10925;49.102;-0.370;2022-08-03T00:55:38;6.75;;;3.63;;
21527;SDS011;10925;49.102;-0.370;2022-08-03T00:58:04;6.18;;;3.33;;
21527;SDS011;10925;49.102;-0.370;2022-08-03T01:00:33;8.38;;;3.72;;
21527;SDS011;10925;49.102;-0.370;2022-08-03T01:03:01;9.57;;;3.72;;
21527;SDS011;10925;49.102;-0.370;2022-08-03T01:05:27;9.50;;;3.50;;
21527;SDS011;10925;49.102;-0.370;2022-08-03T01:08:03;5.20;;;4.10;;
21527;SDS011;10925;49.102;-0.370;2022-08-03T01:13:00;7.60;;;3.70;;
21527;SDS011;10925;49.102;-0.370;2022-08-03T01:15:35;5.57;;;3.70;;
21527;SDS011;10925;49.102;-0.370;2022-08-03T01:18:08;6.10;;;3.83;;
21527;SDS011;10925;49.102;-0.370;2022-08-03T01:20:39;6.93;;;4.13;;
21527;SDS011;10925;49.102;-0.370;2022-08-03T01:31:09;8.07;;;4.13;;
21527;SDS011;10925;49.102;-0.370;2022-08-03T01:33:41;6.32;;;4.28;;
21527;SDS011;10925;49.102;-0.370;2022-08-03T01:36:08;4.13;;;3.08;;
21527;SDS011;10925;49.102;-0.370;2022-08-03T01:38:40;6.75;;;3.60;;
21527;SDS011;10925;49.102;-0.370;2022-08-03T01:41:08;7.80;;;3.50;;
21527;SDS011;10925;49.102;-0.370;2022-08-03T01:43:36;7.80;;;3.75;;
21527;SDS011;10925;49.102;-0.370;2022-08-03T01:46:25;6.20;;;3.67;;
21527;SDS011;10925;49.102;-0.370;2022-08-03T01:48:51;6.22;;;3.47;;
21527;SDS011;10925;49.102;-0.370;2022-08-03T01:51:19;7.13;;;3.72;;
21527;SDS011;10925;49.102;-0.370;2022-08-03T01:53:47;5.28;;;3.85;;
21527;SDS011;10925;49.102;-0.370;2022-08-03T01:56:14;6.07;;;4.15;;
21527;SDS011;10925;49.102;-0.370;2022-08-03T01:58:40;7.30;;;3.85;;
21527;SDS011;10925;49.102;-0.370;2022-08-03T02:01:07;8.23;;;3.95;;
21527;SDS011;10925;49.102;-0.370;2022-08-03T02:03:36;4.95;;;3.45;;
21527;SDS011;10925;49.102;-0.370;2022-08-03T02:06:25;8.70;;;3.72;;
21527;SDS011;10925;49.102;-0.370;2022-08-03T02:09:12;4.30;;;3.35;;
21527;SDS011;10925;49.102;-0.370;2022-08-03T02:11:40;6.40;;;3.90;;
21527;SDS011;10925;49.102;-0.370;2022-08-03T02:14:08;6.80;;;3.50;;
21527;SDS011;10925;49.102;-0.370;2022-08-03T02:16:36;6.93;;;3.33;;
21527;SDS011;10925;49.102;-0.370;2022-08-03T02:19:03;8.35;;;3.60;;
21527;SDS011;10925;49.102;-0.370;2022-08-03T02:21:29;6.38;;;3.50;;
21527;SDS011;10925;49.102;-0.370;2022-08-03T02:23:56;5.03;;;3.67;;
21527;SDS011;10925;49.102;-0.370;2022-08-03T02:26:22;9.13;;;3.63;;
21527;SDS011;10925;49.102;-0.370;2022-08-03T02:28:50;5.18;;;3.25;;
21527;SDS011;10925;49.102;-0.370;2022-08-03T02:31:18;6.38;;;3.00;;
21527;SDS011;10925;49.102;-0.370;2022-08-03T02:33:51;8.50;;;2.80;;
21527;SDS011;10925;49.102;-0.370;2022-08-03T02:36:19;5.95;;;3.08;;
21527;SDS011;10925;49.102;-0.370;2022-08-03T02:38:48;4.80;;;3.25;;
21527;SDS011;10925;49.102;-0.370;2022-08-03T02:41:19;5.35;;;2.83;;
21527;SDS011;10925;49.102;-0.370;2022-08-03T02:43:47;5.65;;;2.97;;
21527;SDS011;10925;49.102;-0.370;2022-08-03T02:46:33;5.47;;;3.20;;
21527;SDS011;10925;49.102;-0.370;2022-08-03T02:49:00;6.43;;;2.95;;
21527;SDS011;10925;49.102;-0.370;2022-08-03T02:51:27;3.75;;;2.90;;
21527;SDS011;10925;49.102;-0.370;2022-08-03T02:53:55;3.70;;;2.80;;
21527;SDS011;10925;49.102;-0.370;2022-08-03T02:56:23;5.35;;;3.20;;
21527;SDS011;10925;49.102;-0.370;2022-08-03T02:58:50;7.45;;;3.40;;
21527;SDS011;10925;49.102;-0.370;2022-08-03T03:01:21;5.05;;;2.90;;
21527;SDS011;10925;49.102;-0.370;2022-08-03T03:03:49;3.65;;;2.75;;
21527;SDS011;10925;49.102;-0.370;2022-08-03T03:06:18;6.68;;;3.03;;
21527;SDS011;10925;49.102;-0.370;2022-08-03T03:08:47;7.93;;;3.08;;
21527;SDS011;10925;49.102;-0.370;2022-08-03T03:11:14;6.80;;;3.20;;
21527;SDS011;10925;49.102;-0.370;2022-08-03T03:13:43;6.68;;;3.42;;
21527;SDS011;10925;49.102;-0.370;2022-08-03T03:16:11;5.90;;;3.22;;
21527;SDS011;10925;49.102;-0.370;2022-08-03T03:18:38;4.78;;;3.40;;
21527;SDS011;10925;49.102;-0.370;2022-08-03T03:21:06;7.50;;;3.58;;
21527;SDS011;10925;49.102;-0.370;2022-08-03T03:23:37;5.65;;;3.60;;
21527;SDS011;10925;49.102;-0.370;2022-08-03T03:26:03;9.80;;;3.85;;
21527;SDS011;10925;49.102;-0.370;2022-08-03T03:28:31;6.88;;;3.50;;
21527;SDS011;10925;49.102;-0.370;2022-08-03T03:30:57;7.07;;;3.90;;
21527;SDS011;10925;49.102;-0.370;2022-08-03T03:33:24;6.93;;;4.15;;
21527;SDS011;10925;49.102;-0.370;2022-08-03T03:35:53;7.30;;;3.55;;
21527;SDS011;10925;49.102;-0.370;2022-08-03T03:38:20;6.82;;;4.22;;
21527;SDS011;10925;49.102;-0.370;2022-08-03T03:40:46;4.38;;;3.58;;
21527;SDS011;10925;49.102;-0.370;2022-08-03T03:43:11;4.82;;;3.67;;
21527;SDS011;10925;49.102;-0.370;2022-08-03T03:45:37;4.68;;;3.42;;
21527;SDS011;10925;49.102;-0.370;2022-08-03T03:48:06;5.63;;;3.45;;
21527;SDS011;10925;49.102;-0.370;2022-08-03T03:50:33;5.97;;;3.22;;
21527;SDS011;10925;49.102;-0.370;2022-08-03T03:53:01;6.50;;;3.65;;
21527;SDS011;10925;49.102;-0.370;2022-08-03T03:55:28;7.03;;;3.45;;
21527;SDS011;10925;49.102;-0.370;2022-08-03T03:57:55;7.10;;;3.40;;
21527;SDS011;10925;49.102;-0.370;2022-08-03T04:00:21;5.93;;;3.22;;
21527;SDS011;10925;49.102;-0.370;2022-08-03T04:02:47;4.40;;;3.00;;
21527;SDS011;10925;49.102;-0.370;2022-08-03T04:05:14;6.15;;;3.22;;
21527;SDS011;10925;49.102;-0.370;2022-08-03T04:14:18;9.18;;;3.30;;
21527;SDS011;10925;49.102;-0.370;2022-08-03T04:16:28;6.40;;;3.55;;
21527;SDS011;10925;49.102;-0.370;2022-08-03T04:19:09;7.10;;;3.55;;
21527;SDS011;10925;49.102;-0.370;2022-08-03T04:21:38;6.13;;;4.15;;
21527;SDS011;10925;49.102;-0.370;2022-08-03T04:24:07;7.85;;;4.28;;
21527;SDS011;10925;49.102;-0.370;2022-08-03T04:26:35;8.98;;;4.55;;
21527;SDS011;10925;49.102;-0.370;2022-08-03T04:29:04;8.25;;;4.72;;
21527;SDS011;10925;49.102;-0.370;2022-08-03T04:31:31;11.35;;;4.05;;
21527;SDS011;10925;49.102;-0.370;2022-08-03T04:33:58;7.85;;;4.53;;
21527;SDS011;10925;49.102;-0.370;2022-08-03T04:36:26;12.40;;;4.00;;
21527;SDS011;10925;49.102;-0.370;2022-08-03T04:38:54;17.15;;;4.75;;
21527;SDS011;10925;49.102;-0.370;2022-08-03T04:41:21;15.95;;;4.53;;
21527;SDS011;10925;49.102;-0.370;2022-08-03T04:46:51;25.20;;;7.80;;
21527;SDS011;10925;49.102;-0.370;2022-08-03T04:49:19;39.10;;;12.15;;
21527;SDS011;10925;49.102;-0.370;2022-08-03T04:51:46;43.38;;;13.15;;
21527;SDS011;10925;49.102;-0.370;2022-08-03T04:54:13;49.08;;;14.07;;
21527;SDS011;10925;49.102;-0.370;2022-08-03T04:56:40;46.78;;;14.95;;
21527;SDS011;10925;49.102;-0.370;2022-08-03T04:59:07;53.08;;;15.68;;
21527;SDS011;10925;49.102;-0.370;2022-08-03T05:01:33;52.88;;;15.57;;
21527;SDS011;10925;49.102;-0.370;2022-08-03T05:04:00;57.83;;;16.63;;
21527;SDS011;10925;49.102;-0.370;2022-08-03T05:06:27;55.67;;;16.27;;
21527;SDS011;10925;49.102;-0.370;2022-08-03T05:08:54;56.42;;;18.70;;
21527;SDS011;10925;49.102;-0.370;2022-08-03T05:11:21;62.53;;;16.90;;
21527;SDS011;10925;49.102;-0.370;2022-08-03T05:13:48;74.28;;;19.58;;
21527;SDS011;10925;49.102;-0.370;2022-08-03T05:16:15;68.28;;;18.95;;
21527;SDS011;10925;49.102;-0.370;2022-08-03T05:18:42;55.78;;;17.23;;
21527;SDS011;10925;49.102;-0.370;2022-08-03T05:21:09;62.28;;;18.42;;
21527;SDS011;10925;49.102;-0.370;2022-08-03T05:23:36;51.33;;;17.58;;
21527;SDS011;10925;49.102;-0.370;2022-08-03T05:26:03;46.05;;;16.80;;
21527;SDS011;10925;49.102;-0.370;2022-08-03T05:28:30;42.10;;;14.57;;
21527;SDS011;10925;49.102;-0.370;2022-08-03T05:30:56;66.05;;;14.52;;
21527;SDS011;10925;49.102;-0.370;2022-08-03T05:33:22;66.72;;;15.23;;
21527;SDS011;10925;49.102;-0.370;2022-08-03T05:35:47;43.78;;;13.05;;
21527;SDS011;10925;49.102;-0.370;2022-08-03T05:38:13;32.50;;;12.00;;
21527;SDS011;10925;49.102;-0.370;2022-08-03T05:40:38;31.58;;;11.95;;
21527;SDS011;10925;49.102;-0.370;2022-08-03T05:43:22;31.73;;;11.55;;
21527;SDS011;10925;49.102;-0.370;2022-08-03T05:45:47;28.95;;;9.50;;
21527;SDS011;10925;49.102;-0.370;2022-08-03T05:48:34;29.60;;;9.52;;
21527;SDS011;10925;49.102;-0.370;2022-08-03T05:51:00;23.25;;;8.70;;
21527;SDS011;10925;49.102;-0.370;2022-08-03T05:53:27;25.40;;;8.77;;
21527;SDS011;10925;49.102;-0.370;2022-08-03T05:55:54;17.85;;;9.00;;
21527;SDS011;10925;49.102;-0.370;2022-08-03T05:58:20;19.40;;;8.30;;
21527;SDS011;10925;49.102;-0.370;2022-08-03T06:00:47;18.02;;;8.85;;
21527;SDS011;10925;49.102;-0.370;2022-08-03T06:03:13;18.80;;;9.43;;
21527;SDS011;10925;49.102;-0.370;2022-08-03T06:05:39;20.35;;;9.20;;
21527;SDS011;10925;49.102;-0.370;2022-08-03T06:08:21;18.83;;;9.77;;
21527;SDS011;10925;49.102;-0.370;2022-08-03T06:10:47;34.20;;;10.98;;
21527;SDS011;10925;49.102;-0.370;2022-08-03T06:13:14;55.50;;;13.52;;
21527;SDS011;10925;49.102;-0.370;2022-08-03T06:15:41;24.52;;;11.30;;
21527;SDS011;10925;49.102;-0.370;2022-08-03T06:18:06;20.20;;;10.85;;
21527;SDS011;10925;49.102;-0.370;2022-08-03T06:20:33;18.13;;;10.23;;
21527;SDS011;10925;49.102;-0.370;2022-08-03T06:23:00;19.33;;;9.13;;
21527;SDS011;10925;49.102;-0.370;2022-08-03T06:25:25;21.38;;;10.30;;
21527;SDS011;10925;49.102;-0.370;2022-08-03T06:27:52;17.13;;;8.18;;
21527;SDS011;10925;49.102;-0.370;2022-08-03T06:30:19;14.30;;;8.20;;
21527;SDS011;10925;49.102;-0.370;2022-08-03T06:32:46;13.95;;;8.07;;
21527;SDS011;10925;49.102;-0.370;2022-08-03T06:35:17;16.95;;;9.57;;
21527;SDS011;10925;49.102;-0.370;2022-08-03T06:37:45;15.05;;;9.05;;
21527;SDS011;10925;49.102;-0.370;2022-08-03T06:40:12;15.50;;;8.93;;
21527;SDS011;10925;49.102;-0.370;2022-08-03T06:42:47;14.90;;;8.90;;
21527;SDS011;10925;49.102;-0.370;2022-08-03T06:45:15;13.18;;;8.45;;
21527;SDS011;10925;49.102;-0.370;2022-08-03T06:47:41;13.18;;;8.15;;
21527;SDS011;10925;49.102;-0.370;2022-08-03T06:50:06;15.30;;;8.43;;
21527;SDS011;10925;49.102;-0.370;2022-08-03T06:52:42;12.63;;;7.70;;
21527;SDS011;10925;49.102;-0.370;2022-08-03T06:55:10;11.55;;;7.00;;
21527;SDS011;10925;49.102;-0.370;2022-08-03T06:57:36;10.00;;;6.53;;
21527;SDS011;10925;49.102;-0.370;2022-08-03T07:00:03;13.50;;;6.60;;
21527;SDS011;10925;49.102;-0.370;2022-08-03T07:02:37;10.70;;;5.32;;
21527;SDS011;10925;49.102;-0.370;2022-08-03T07:05:04;9.00;;;4.03;;
21527;SDS011;10925;49.102;-0.370;2022-08-03T07:07:30;9.68;;;4.63;;
21527;SDS011;10925;49.102;-0.370;2022-08-03T07:09:57;9.13;;;4.80;;
21527;SDS011;10925;49.102;-0.370;2022-08-03T07:12:28;10.40;;;3.78;;
21527;SDS011;10925;49.102;-0.370;2022-08-03T07:14:54;9.05;;;3.65;;
21527;SDS011;10925;49.102;-0.370;2022-08-03T07:17:28;10.15;;;4.72;;
21527;SDS011;10925;49.102;-0.370;2022-08-03T07:19:56;12.98;;;3.92;;
21527;SDS011;10925;49.102;-0.370;2022-08-03T07:22:23;10.40;;;3.35;;
21527;SDS011;10925;49.102;-0.370;2022-08-03T07:24:50;13.82;;;2.72;;
21527;SDS011;10925;49.102;-0.370;2022-08-03T07:27:16;11.77;;;2.92;;
21527;SDS011;10925;49.102;-0.370;2022-08-03T07:29:41;9.52;;;2.80;;
21527;SDS011;10925;49.102;-0.370;2022-08-03T07:32:08;9.38;;;2.67;;
21527;SDS011;10925;49.102;-0.370;2022-08-03T07:34:35;8.25;;;2.45;;
21527;SDS011;10925;49.102;-0.370;2022-08-03T07:37:02;15.77;;;2.40;;
21527;SDS011;10925;49.102;-0.370;2022-08-03T07:39:28;12.32;;;2.75;;
21527;SDS011;10925;49.102;-0.370;2022-08-03T07:41:54;13.93;;;2.45;;
21527;SDS011;10925;49.102;-0.370;2022-08-03T07:44:21;12.75;;;2.55;;
21527;SDS011;10925;49.102;-0.370;2022-08-03T07:46:47;8.73;;;2.30;;
21527;SDS011;10925;49.102;-0.370;2022-08-03T07:49:14;9.45;;;1.85;;
21527;SDS011;10925;49.102;-0.370;2022-08-03T07:51:40;9.98;;;2.50;;
21527;SDS011;10925;49.102;-0.370;2022-08-03T07:54:07;12.13;;;2.35;;
21527;SDS011;10925;49.102;-0.370;2022-08-03T07:56:34;9.52;;;2.33;;
21527;SDS011;10925;49.102;-0.370;2022-08-03T07:59:00;8.82;;;1.77;;
21527;SDS011;10925;49.102;-0.370;2022-08-03T08:01:27;7.82;;;1.75;;
21527;SDS011;10925;49.102;-0.370;2022-08-03T08:03:52;9.13;;;2.13;;
21527;SDS011;10925;49.102;-0.370;2022-08-03T08:06:19;10.50;;;2.63;;
21527;SDS011;10925;49.102;-0.370;2022-08-03T08:08:46;9.52;;;2.13;;
21527;SDS011;10925;49.102;-0.370;2022-08-03T08:11:14;16.30;;;2.30;;
21527;SDS011;10925;49.102;-0.370;2022-08-03T08:13:40;11.48;;;2.22;;
21527;SDS011;10925;49.102;-0.370;2022-08-03T08:16:07;14.50;;;3.08;;
21527;SDS011;10925;49.102;-0.370;2022-08-03T08:18:35;10.13;;;2.15;;
21527;SDS011;10925;49.102;-0.370;2022-08-03T08:21:02;11.80;;;2.13;;
21527;SDS011;10925;49.102;-0.370;2022-08-03T08:23:29;10.45;;;2.17;;
21527;SDS011;10925;49.102;-0.370;2022-08-03T08:25:55;7.53;;;2.05;;
21527;SDS011;10925;49.102;-0.370;2022-08-03T08:28:20;10.45;;;2.13;;
21527;SDS011;10925;49.102;-0.370;2022-08-03T08:30:46;8.80;;;2.10;;
21527;SDS011;10925;49.102;-0.370;2022-08-03T08:33:13;13.23;;;2.30;;
21527;SDS011;10925;49.102;-0.370;2022-08-03T08:35:49;6.30;;;1.80;;
21527;SDS011;10925;49.102;-0.370;2022-08-03T08:38:15;11.18;;;2.10;;
21527;SDS011;10925;49.102;-0.370;2022-08-03T08:40:43;8.60;;;2.30;;
21527;SDS011;10925;49.102;-0.370;2022-08-03T08:43:10;8.73;;;2.22;;
21527;SDS011;10925;49.102;-0.370;2022-08-03T08:45:37;10.13;;;2.63;;
21527;SDS011;10925;49.102;-0.370;2022-08-03T08:48:03;13.25;;;2.58;;
21527;SDS011;10925;49.102;-0.370;2022-08-03T08:50:33;10.90;;;2.10;;
21527;SDS011;10925;49.102;-0.370;2022-08-03T08:53:01;11.30;;;2.20;;
21527;SDS011;10925;49.102;-0.370;2022-08-03T08:55:29;11.07;;;2.05;;
21527;SDS011;10925;49.102;-0.370;2022-08-03T08:58:16;7.68;;;2.60;;
21527;SDS011;10925;49.102;-0.370;2022-08-03T09:00:44;8.88;;;2.30;;
21527;SDS011;10925;49.102;-0.370;2022-08-03T09:03:13;8.10;;;2.22;;
21527;SDS011;10925;49.102;-0.370;2022-08-03T09:05:41;6.28;;;2.30;;
21527;SDS011;10925;49.102;-0.370;2022-08-03T09:08:06;8.95;;;2.08;;
21527;SDS011;10925;49.102;-0.370;2022-08-03T09:10:33;10.05;;;2.30;;
21527;SDS011;10925;49.102;-0.370;2022-08-03T09:13:00;9.20;;;2.33;;
21527;SDS011;10925;49.102;-0.370;2022-08-03T09:15:27;7.90;;;2.50;;
21527;SDS011;10925;49.102;-0.370;2022-08-03T09:17:55;10.45;;;2.13;;
21527;SDS011;10925;49.102;-0.370;2022-08-03T09:20:22;15.57;;;2.20;;
21527;SDS011;10925;49.102;-0.370;2022-08-03T09:25:17;10.85;;;2.47;;
21527;SDS011;10925;49.102;-0.370;2022-08-03T09:27:43;7.13;;;2.28;;
21527;SDS011;10925;49.102;-0.370;2022-08-03T09:30:16;6.75;;;1.98;;
21527;SDS011;10925;49.102;-0.370;2022-08-03T09:33:04;9.15;;;2.15;;
21527;SDS011;10925;49.102;-0.370;2022-08-03T09:35:32;7.85;;;1.75;;
21527;SDS011;10925;49.102;-0.370;2022-08-03T09:38:20;8.57;;;2.25;;
21527;SDS011;10925;49.102;-0.370;2022-08-03T09:40:51;7.35;;;2.25;;
21527;SDS011;10925;49.102;-0.370;2022-08-03T09:43:17;14.50;;;2.25;;
21527;SDS011;10925;49.102;-0.370;2022-08-03T09:45:43;8.43;;;1.90;;
21527;SDS011;10925;49.102;-0.370;2022-08-03T09:48:24;16.75;;;1.95;;
21527;SDS011;10925;49.102;-0.370;2022-08-03T09:50:51;6.40;;;2.33;;
21527;SDS011;10925;49.102;-0.370;2022-08-03T09:53:44;6.95;;;1.98;;
21527;SDS011;10925;49.102;-0.370;2022-08-03T09:56:36;7.85;;;1.80;;
21527;SDS011;10925;49.102;-0.370;2022-08-03T09:59:01;8.52;;;2.35;;
21527;SDS011;10925;49.102;-0.370;2022-08-03T10:01:31;8.43;;;1.90;;
21527;SDS011;10925;49.102;-0.370;2022-08-03T10:03:58;12.15;;;2.10;;
21527;SDS011;10925;49.102;-0.370;2022-08-03T10:06:30;9.90;;;2.00;;
21527;SDS011;10925;49.102;-0.370;2022-08-03T10:09:11;10.00;;;2.20;;
21527;SDS011;10925;49.102;-0.370;2022-08-03T10:11:38;7.97;;;2.38;;
21527;SDS011;10925;49.102;-0.370;2022-08-03T10:14:10;14.57;;;2.08;;
21527;SDS011;10925;49.102;-0.370;2022-08-03T10:16:43;9.50;;;2.30;;
21527;SDS011;10925;49.102;-0.370;2022-08-03T10:19:09;6.90;;;2.08;;
21527;SDS011;10925;49.102;-0.370;2022-08-03T10:21:38;7.10;;;1.80;;
21527;SDS011;10925;49.102;-0.370;2022-08-03T10:24:06;6.78;;;1.85;;
21527;SDS011;10925;49.102;-0.370;2022-08-03T10:26:34;5.18;;;1.90;;
21527;SDS011;10925;49.102;-0.370;2022-08-03T10:29:03;7.97;;;2.03;;
21527;SDS011;10925;49.102;-0.370;2022-08-03T10:31:38;5.93;;;1.92;;
21527;SDS011;10925;49.102;-0.370;2022-08-03T10:34:27;8.90;;;2.65;;
21527;SDS011;10925;49.102;-0.370;2022-08-03T10:36:55;5.25;;;2.40;;
21527;SDS011;10925;49.102;-0.370;2022-08-03T10:39:23;7.40;;;1.85;;
21527;SDS011;10925;49.102;-0.370;2022-08-03T10:41:50;9.93;;;2.03;;
21527;SDS011;10925;49.102;-0.370;2022-08-03T10:44:18;9.95;;;2.42;;
21527;SDS011;10925;49.102;-0.370;2022-08-03T10:46:45;15.95;;;2.88;;
21527;SDS011;10925;49.102;-0.370;2022-08-03T10:49:12;8.82;;;2.42;;
21527;SDS011;10925;49.102;-0.370;2022-08-03T10:51:57;9.23;;;2.70;;
21527;SDS011;10925;49.102;-0.370;2022-08-03T10:54:39;15.75;;;3.60;;
21527;SDS011;10925;49.102;-0.370;2022-08-03T11:00:15;15.18;;;3.95;;
21527;SDS011;10925;49.102;-0.370;2022-08-03T11:05:27;13.52;;;4.13;;
21527;SDS011;10925;49.102;-0.370;2022-08-03T11:10:40;13.80;;;5.30;;
21527;SDS011;10925;49.102;-0.370;2022-08-03T11:13:06;13.18;;;4.68;;
21527;SDS011;10925;49.102;-0.370;2022-08-03T11:15:32;21.77;;;5.25;;
21527;SDS011;10925;49.102;-0.370;2022-08-03T11:18:06;15.93;;;5.22;;
21527;SDS011;10925;49.102;-0.370;2022-08-03T11:23:41;15.45;;;6.47;;
21527;SDS011;10925;49.102;-0.370;2022-08-03T11:26:28;13.68;;;5.72;;
21527;SDS011;10925;49.102;-0.370;2022-08-03T11:31:57;14.10;;;6.00;;
21527;SDS011;10925;49.102;-0.370;2022-08-03T11:34:24;20.25;;;6.70;;
21527;SDS011;10925;49.102;-0.370;2022-08-03T11:39:39;15.30;;;5.40;;
21527;SDS011;10925;49.102;-0.370;2022-08-03T11:44:50;17.27;;;5.50;;
21527;SDS011;10925;49.102;-0.370;2022-08-03T11:47:17;13.73;;;4.88;;
21527;SDS011;10925;49.102;-0.370;2022-08-03T11:49:46;10.43;;;4.22;;
21527;SDS011;10925;49.102;-0.370;2022-08-03T11:52:11;12.98;;;4.50;;
21527;SDS011;10925;49.102;-0.370;2022-08-03T11:54:38;11.23;;;4.38;;
21527;SDS011;10925;49.102;-0.370;2022-08-03T11:57:06;8.23;;;3.45;;
21527;SDS011;10925;49.102;-0.370;2022-08-03T11:59:33;11.38;;;3.95;;
21527;SDS011;10925;49.102;-0.370;2022-08-03T12:02:09;9.98;;;3.97;;
21527;SDS011;10925;49.102;-0.370;2022-08-03T12:04:52;11.68;;;3.80;;
21527;SDS011;10925;49.102;-0.370;2022-08-03T12:07:19;11.93;;;3.50;;
21527;SDS011;10925;49.102;-0.370;2022-08-03T12:10:06;11.18;;;3.40;;
21527;SDS011;10925;49.102;-0.370;2022-08-03T12:12:37;11.63;;;3.03;;
21527;SDS011;10925;49.102;-0.370;2022-08-03T12:15:03;9.95;;;3.47;;
21527;SDS011;10925;49.102;-0.370;2022-08-03T12:17:32;9.68;;;2.97;;
21527;SDS011;10925;49.102;-0.370;2022-08-03T12:20:00;9.00;;;3.05;;
21527;SDS011;10925;49.102;-0.370;2022-08-03T12:22:34;10.05;;;2.80;;
21527;SDS011;10925;49.102;-0.370;2022-08-03T12:25:03;12.02;;;2.58;;
21527;SDS011;10925;49.102;-0.370;2022-08-03T12:27:30;15.10;;;3.08;;
21527;SDS011;10925;49.102;-0.370;2022-08-03T12:29:56;11.57;;;2.63;;
21527;SDS011;10925;49.102;-0.370;2022-08-03T12:32:25;14.48;;;3.08;;
21527;SDS011;10925;49.102;-0.370;2022-08-03T12:34:50;13.13;;;3.05;;
21527;SDS011;10925;49.102;-0.370;2022-08-03T12:37:18;9.15;;;2.97;;
21527;SDS011;10925;49.102;-0.370;2022-08-03T12:39:55;11.18;;;3.28;;
21527;SDS011;10925;49.102;-0.370;2022-08-03T12:42:32;13.48;;;3.05;;
21527;SDS011;10925;49.102;-0.370;2022-08-03T12:48:02;12.18;;;2.60;;
21527;SDS011;10925;49.102;-0.370;2022-08-03T12:50:34;15.07;;;3.22;;
21527;SDS011;10925;49.102;-0.370;2022-08-03T12:53:02;11.98;;;2.70;;
21527;SDS011;10925;49.102;-0.370;2022-08-03T12:55:30;11.10;;;2.72;;
21527;SDS011;10925;49.102;-0.370;2022-08-03T12:58:33;9.90;;;3.08;;
21527;SDS011;10925;49.102;-0.370;2022-08-03T13:01:04;11.20;;;2.60;;
21527;SDS011;10925;49.102;-0.370;2022-08-03T13:03:42;13.73;;;2.88;;
21527;SDS011;10925;49.102;-0.370;2022-08-03T13:06:17;6.90;;;2.30;;
21527;SDS011;10925;49.102;-0.370;2022-08-03T13:08:43;9.88;;;2.63;;
21527;SDS011;10925;49.102;-0.370;2022-08-03T13:11:20;13.45;;;2.83;;
21527;SDS011;10925;49.102;-0.370;2022-08-03T13:13:47;14.65;;;2.97;;
21527;SDS011;10925;49.102;-0.370;2022-08-03T13:16:14;11.10;;;2.60;;
21527;SDS011;10925;49.102;-0.370;2022-08-03T13:18:44;14.18;;;3.25;;
21527;SDS011;10925;49.102;-0.370;2022-08-03T13:21:14;10.82;;;2.47;;
21527;SDS011;10925;49.102;-0.370;2022-08-03T13:23:41;10.35;;;2.60;;
21527;SDS011;10925;49.102;-0.370;2022-08-03T13:26:08;10.50;;;3.00;;
21527;SDS011;10925;49.102;-0.370;2022-08-03T13:28:34;11.23;;;2.67;;
21527;SDS011;10925;49.102;-0.370;2022-08-03T13:30:59;14.40;;;2.88;;
21527;SDS011;10925;49.102;-0.370;2022-08-03T13:33:25;9.05;;;2.40;;
21527;SDS011;10925;49.102;-0.370;2022-08-03T13:35:53;13.77;;;2.72;;
21527;SDS011;10925;49.102;-0.370;2022-08-03T13:38:20;15.32;;;2.75;;
21527;SDS011;10925;49.102;-0.370;2022-08-03T13:40:45;12.77;;;2.83;;
21527;SDS011;10925;49.102;-0.370;2022-08-03T13:43:15;15.95;;;3.25;;
21527;SDS011;10925;49.102;-0.370;2022-08-03T13:45:42;9.93;;;2.50;;
21527;SDS011;10925;49.102;-0.370;2022-08-03T13:48:16;14.80;;;2.85;;
21527;SDS011;10925;49.102;-0.370;2022-08-03T13:51:03;10.05;;;2.50;;
21527;SDS011;10925;49.102;-0.370;2022-08-03T13:53:48;14.77;;;3.05;;
21527;SDS011;10925;49.102;-0.370;2022-08-03T13:56:15;8.38;;;3.08;;
21527;SDS011;10925;49.102;-0.370;2022-08-03T13:58:41;17.35;;;3.72;;
21527;SDS011;10925;49.102;-0.370;2022-08-03T14:01:08;16.08;;;3.20;;
21527;SDS011;10925;49.102;-0.370;2022-08-03T14:03:34;14.18;;;3.50;;
21527;SDS011;10925;49.102;-0.370;2022-08-03T14:06:01;11.27;;;2.65;;
21527;SDS011;10925;49.102;-0.370;2022-08-03T14:08:28;12.73;;;2.70;;
21527;SDS011;10925;49.102;-0.370;2022-08-03T14:10:55;15.15;;;3.28;;
21527;SDS011;10925;49.102;-0.370;2022-08-03T14:13:22;14.77;;;3.50;;
21527;SDS011;10925;49.102;-0.370;2022-08-03T14:15:52;12.40;;;3.53;;
21527;SDS011;10925;49.102;-0.370;2022-08-03T14:18:24;11.55;;;2.55;;
21527;SDS011;10925;49.102;-0.370;2022-08-03T14:21:02;12.00;;;2.63;;
21527;SDS011;10925;49.102;-0.370;2022-08-03T14:23:33;11.65;;;2.40;;
21527;SDS011;10925;49.102;-0.370;2022-08-03T14:25:58;12.15;;;3.08;;
21527;SDS011;10925;49.102;-0.370;2022-08-03T14:28:24;20.85;;;2.85;;
21527;SDS011;10925;49.102;-0.370;2022-08-03T14:30:51;14.18;;;3.00;;
21527;SDS011;10925;49.102;-0.370;2022-08-03T14:33:18;5.43;;;2.20;;
21527;SDS011;10925;49.102;-0.370;2022-08-03T14:35:44;13.25;;;3.42;;
21527;SDS011;10925;49.102;-0.370;2022-08-03T14:38:09;13.60;;;3.40;;
21527;SDS011;10925;49.102;-0.370;2022-08-03T14:40:36;12.95;;;2.80;;
21527;SDS011;10925;49.102;-0.370;2022-08-03T14:43:01;11.57;;;3.33;;
21527;SDS011;10925;49.102;-0.370;2022-08-03T14:45:33;9.88;;;2.80;;
21527;SDS011;10925;49.102;-0.370;2022-08-03T14:48:02;18.67;;;3.80;;
21527;SDS011;10925;49.102;-0.370;2022-08-03T14:50:34;7.20;;;2.45;;
21527;SDS011;10925;49.102;-0.370;2022-08-03T14:53:12;12.10;;;3.10;;
21527;SDS011;10925;49.102;-0.370;2022-08-03T14:55:45;10.25;;;2.60;;
21527;SDS011;10925;49.102;-0.370;2022-08-03T14:58:13;9.15;;;2.70;;
21527;SDS011;10925;49.102;-0.370;2022-08-03T15:00:42;14.25;;;3.10;;
21527;SDS011;10925;49.102;-0.370;2022-08-03T15:03:10;17.08;;;3.00;;
21527;SDS011;10925;49.102;-0.370;2022-08-03T15:05:38;12.07;;;2.97;;
21527;SDS011;10925;49.102;-0.370;2022-08-03T15:08:04;12.32;;;2.85;;
21527;SDS011;10925;49.102;-0.370;2022-08-03T15:10:29;11.40;;;2.55;;
21527;SDS011;10925;49.102;-0.370;2022-08-03T15:13:10;14.48;;;3.15;;
21527;SDS011;10925;49.102;-0.370;2022-08-03T15:15:35;11.52;;;2.60;;
21527;SDS011;10925;49.102;-0.370;2022-08-03T15:18:02;14.85;;;3.20;;
21527;SDS011;10925;49.102;-0.370;2022-08-03T15:20:29;11.05;;;2.78;;
21527;SDS011;10925;49.102;-0.370;2022-08-03T15:23:09;12.88;;;2.83;;